Time;durP1;ratioP1;P1;durP2;ratioP2;P2;SDS_P1;SDS_P2;PMS_P1;PMS_P2;Temp;Humidity;BMP_temperature;BMP_pressure;BME280_temperature;BME280_humidity;BME280_pressure;Samples;Min_cycle;Max_cycle;Signal;HPM_P1;HPM_P2
2023/01/06 09:19:41;;;;;;;0.70;0.50;;;11.30;99.90;;;;;;4501994;23;20720;-73
2023/01/06 09:22:08;;;;;;;0.60;0.47;;;11.10;99.90;;;;;;4883311;29;20301;-75
2023/01/06 09:24:35;;;;;;;0.50;0.37;;;11.10;99.90;;;;;;4894781;29;20206;-74
2023/01/06 09:27:02;;;;;;;0.50;0.40;;;11.10;99.90;;;;;;4899392;29;20242;-72
2023/01/06 09:29:29;;;;;;;0.50;0.40;;;11.10;99.90;;;;;;4899781;29;20217;-74
2023/01/06 09:31:55;;;;;;;0.77;0.50;;;11.00;99.90;;;;;;4899666;29;20214;-74
2023/01/06 09:34:22;;;;;;;0.93;0.50;;;11.10;99.90;;;;;;4899708;29;20217;-69
2023/01/06 09:36:50;;;;;;;0.70;0.43;;;11.10;99.90;;;;;;4899312;29;20225;-73
2023/01/06 09:39:17;;;;;;;2.27;0.63;;;11.10;99.90;;;;;;4899565;29;20214;-75
2023/01/06 09:42:09;;;;;;;0.63;0.50;;;11.00;99.90;;;;;;4899416;29;20325;-73
2023/01/06 09:44:45;;;;;;;0.53;0.40;;;11.10;99.90;;;;;;4899589;29;20210;-73
2023/01/06 09:47:18;;;;;;;1.07;0.60;;;11.10;99.90;;;;;;4899238;29;20662;-73
2023/01/06 09:49:49;;;;;;;1.03;0.70;;;11.10;99.90;;;;;;4899479;29;20573;-74
2023/01/06 09:52:23;;;;;;;1.30;0.50;;;11.20;99.90;;;;;;4899251;29;20210;-72
2023/01/06 09:54:55;;;;;;;2.00;0.80;;;11.20;99.90;;;;;;4899040;29;20301;-73
2023/01/06 09:57:28;;;;;;;0.67;0.50;;;11.20;99.90;;;;;;4899002;29;20220;-73
2023/01/06 09:59:59;;;;;;;0.70;0.60;;;11.20;99.90;;;;;;4898257;29;20215;-73
2023/01/06 10:02:30;;;;;;;0.40;0.40;;;11.20;99.90;;;;;;4899350;29;20222;-72
2023/01/06 10:04:57;;;;;;;0.50;0.43;;;11.30;99.90;;;;;;4898961;29;20214;-74
2023/01/06 10:07:33;;;;;;;0.97;0.60;;;11.30;99.90;;;;;;4899205;29;20281;-72
2023/01/06 10:10:14;;;;;;;0.60;0.50;;;11.30;99.90;;;;;;4898788;29;20214;-74
2023/01/06 10:12:52;;;;;;;0.83;0.60;;;11.20;99.90;;;;;;4899256;29;20232;-73
2023/01/06 10:15:25;;;;;;;0.60;0.50;;;11.20;99.90;;;;;;4898531;29;20731;-73
2023/01/06 10:18:07;;;;;;;0.50;0.43;;;11.30;99.90;;;;;;4898065;29;20219;-73
2023/01/06 10:20:51;;;;;;;1.33;0.70;;;11.30;99.90;;;;;;4895140;29;20241;-72
2023/01/06 10:23:35;;;;;;;0.80;0.57;;;11.30;99.90;;;;;;4895344;29;20705;-73
2023/01/06 10:26:11;;;;;;;0.70;0.60;;;11.30;99.90;;;;;;4897246;29;20725;-69
2023/01/06 10:28:42;;;;;;;1.80;0.60;;;11.30;99.90;;;;;;4898104;29;20206;-70
2023/01/06 10:31:15;;;;;;;0.97;0.53;;;11.30;99.90;;;;;;4897781;29;20203;-70
2023/01/06 10:33:44;;;;;;;0.70;0.40;;;11.40;99.90;;;;;;4898422;29;20213;-67
2023/01/06 10:36:13;;;;;;;1.23;0.57;;;11.40;99.90;;;;;;4898304;29;20227;-67
2023/01/06 10:38:45;;;;;;;0.50;0.47;;;11.50;99.90;;;;;;4898144;29;20570;-67
2023/01/06 10:41:19;;;;;;;0.60;0.47;;;11.40;99.90;;;;;;4897932;29;20244;-67
2023/01/06 10:43:46;;;;;;;0.50;0.40;;;11.50;99.90;;;;;;4898190;29;20681;-72
2023/01/06 10:46:14;;;;;;;0.40;0.40;;;11.50;99.90;;;;;;4898054;29;20230;-71
2023/01/06 10:48:41;;;;;;;0.90;0.37;;;11.40;99.90;;;;;;4898124;29;20217;-72
2023/01/06 10:51:34;;;;;;;0.40;0.40;;;11.30;99.90;;;;;;4898047;29;20221;-72
2023/01/06 10:54:06;;;;;;;0.60;0.50;;;11.30;99.90;;;;;;4897891;29;20210;-72
2023/01/06 10:56:35;;;;;;;0.57;0.30;;;11.30;99.90;;;;;;4898108;29;20237;-76
2023/01/06 10:59:07;;;;;;;0.60;0.40;;;11.30;99.90;;;;;;4892252;29;20214;-71
2023/01/06 11:01:36;;;;;;;0.60;0.30;;;11.40;99.90;;;;;;4896385;29;20309;-71
2023/01/06 11:04:10;;;;;;;0.40;0.37;;;11.50;99.90;;;;;;4896741;29;20210;-71
2023/01/06 11:06:40;;;;;;;0.60;0.40;;;11.30;99.90;;;;;;4896024;29;20233;-73
2023/01/06 11:09:22;;;;;;;0.30;0.30;;;11.30;99.90;;;;;;4896396;29;20242;-71
2023/01/06 11:11:50;;;;;;;2.53;0.40;;;11.30;99.90;;;;;;4896328;29;20692;-71
2023/01/06 11:14:19;;;;;;;0.60;0.50;;;11.30;99.90;;;;;;4896231;29;20214;-71
2023/01/06 11:16:55;;;;;;;0.30;0.23;;;11.30;99.90;;;;;;4891597;29;20696;-72
2023/01/06 11:19:31;;;;;;;0.53;0.40;;;11.30;99.90;;;;;;4896149;29;20225;-72
2023/01/06 11:21:58;;;;;;;0.40;0.40;;;11.40;99.90;;;;;;4896897;29;20230;-72
2023/01/06 11:24:27;;;;;;;0.87;0.40;;;11.50;99.90;;;;;;4896429;29;20670;-70
2023/01/06 11:26:55;;;;;;;1.13;0.40;;;11.40;99.90;;;;;;4895810;29;20237;-71
2023/01/06 11:29:28;;;;;;;0.40;0.33;;;11.50;99.90;;;;;;4896092;29;20214;-69
2023/01/06 11:31:56;;;;;;;0.80;0.33;;;11.40;99.90;;;;;;4896783;29;20237;-72
2023/01/06 11:34:24;;;;;;;0.63;0.40;;;11.40;99.90;;;;;;4895939;29;20213;-72
2023/01/06 11:36:52;;;;;;;0.80;0.60;;;11.40;99.90;;;;;;4896875;29;20234;-72
2023/01/06 11:39:27;;;;;;;2.40;0.50;;;11.40;99.90;;;;;;4896789;29;20542;-71
2023/01/06 11:41:56;;;;;;;0.50;0.50;;;11.50;99.90;;;;;;4897092;29;20252;-71
2023/01/06 11:44:29;;;;;;;0.70;0.50;;;11.50;99.90;;;;;;4897371;29;20570;-71
2023/01/06 11:46:58;;;;;;;0.70;0.60;;;11.40;99.90;;;;;;4896581;29;20285;-71
2023/01/06 11:49:29;;;;;;;0.47;0.40;;;11.40;99.90;;;;;;4897162;29;20221;-71
2023/01/06 11:52:01;;;;;;;1.10;0.70;;;11.40;99.90;;;;;;4897680;29;20210;-72
2023/01/06 11:54:37;;;;;;;0.60;0.47;;;11.40;99.90;;;;;;4897588;29;20210;-72
2023/01/06 11:57:21;;;;;;;0.50;0.40;;;11.40;99.90;;;;;;4897199;29;20229;-72
2023/01/06 12:00:04;;;;;;;0.63;0.50;;;11.50;99.90;;;;;;4897476;29;20210;-72
2023/01/06 12:02:40;;;;;;;0.80;0.50;;;11.50;99.90;;;;;;4897386;29;20637;-72
2023/01/06 12:05:18;;;;;;;0.50;0.47;;;11.50;99.90;;;;;;4897210;29;20241;-72
2023/01/06 12:07:51;;;;;;;0.50;0.40;;;11.50;99.90;;;;;;4897160;29;20210;-73
2023/01/06 12:10:23;;;;;;;2.30;0.60;;;11.50;99.90;;;;;;4897168;29;20207;-73
2023/01/06 12:12:50;;;;;;;0.90;0.50;;;11.40;99.90;;;;;;4897448;29;20547;-72
2023/01/06 12:15:18;;;;;;;0.70;0.30;;;11.40;99.90;;;;;;4896715;29;20290;-73
2023/01/06 12:17:49;;;;;;;0.60;0.50;;;11.50;99.90;;;;;;4897168;29;20574;-71
2023/01/06 12:20:22;;;;;;;0.47;0.40;;;11.50;99.90;;;;;;4896978;29;20210;-71
2023/01/06 12:22:52;;;;;;;0.67;0.47;;;11.50;99.90;;;;;;4897381;29;20224;-71
2023/01/06 12:25:24;;;;;;;1.33;0.70;;;11.50;99.90;;;;;;4900591;29;20226;-71
2023/01/06 12:27:56;;;;;;;2.00;0.40;;;11.50;99.90;;;;;;4900723;29;20207;-70
2023/01/06 12:30:29;;;;;;;0.80;0.50;;;11.50;99.90;;;;;;4900705;29;20581;-71
2023/01/06 12:33:04;;;;;;;2.53;0.60;;;11.50;99.90;;;;;;4900470;29;20225;-70
2023/01/06 12:35:34;;;;;;;0.60;0.50;;;11.50;99.90;;;;;;4900394;29;20236;-70
2023/01/06 12:38:07;;;;;;;0.87;0.53;;;11.50;99.90;;;;;;4900309;29;20233;-71
2023/01/06 12:40:42;;;;;;;1.00;0.80;;;11.50;99.90;;;;;;4900553;29;20211;-70
2023/01/06 12:43:15;;;;;;;1.60;0.70;;;11.50;99.90;;;;;;4900377;29;20217;-70
2023/01/06 12:45:49;;;;;;;1.40;0.60;;;11.50;99.90;;;;;;4900250;29;20230;-72
2023/01/06 12:48:21;;;;;;;0.70;0.50;;;11.60;99.90;;;;;;4900393;29;20213;-68
2023/01/06 12:50:52;;;;;;;1.33;0.77;;;11.60;99.90;;;;;;4899996;29;20218;-72
2023/01/06 12:53:23;;;;;;;1.77;0.90;;;11.60;99.90;;;;;;4900043;29;20670;-68
2023/01/06 12:56:07;;;;;;;0.80;0.70;;;11.70;99.90;;;;;;4899936;29;20230;-71
2023/01/06 12:58:41;;;;;;;1.23;0.60;;;11.80;99.90;;;;;;4900202;29;20242;-72
2023/01/06 13:01:14;;;;;;;1.23;0.90;;;11.90;99.90;;;;;;4900207;29;20231;-73
2023/01/06 13:04:09;;;;;;;0.93;0.63;;;11.80;99.90;;;;;;4900227;29;20768;-71
2023/01/06 13:06:49;;;;;;;2.30;0.90;;;11.90;99.90;;;;;;4899746;29;20724;-71
2023/01/06 13:09:36;;;;;;;0.70;0.53;;;11.90;99.90;;;;;;4899637;29;20679;-71
2023/01/06 13:12:20;;;;;;;0.57;0.40;;;11.90;99.90;;;;;;4899954;29;20213;-71
2023/01/06 13:14:55;;;;;;;0.93;0.60;;;12.00;99.90;;;;;;4899841;29;20217;-72
2023/01/06 13:17:28;;;;;;;0.83;0.70;;;11.90;99.90;;;;;;4899805;29;20213;-72
2023/01/06 13:20:01;;;;;;;0.63;0.50;;;11.90;99.90;;;;;;4899411;29;20230;-72
2023/01/06 13:22:40;;;;;;;0.70;0.70;;;11.90;99.90;;;;;;4899724;29;20238;-72
2023/01/06 13:25:26;;;;;;;3.33;0.60;;;11.90;99.90;;;;;;4899320;29;20226;-72
2023/01/06 13:28:04;;;;;;;1.03;0.53;;;12.00;99.90;;;;;;4899595;29;20725;-68
2023/01/06 13:30:47;;;;;;;0.83;0.83;;;12.00;99.90;;;;;;4899802;29;20210;-70
2023/01/06 13:33:36;;;;;;;0.73;0.60;;;12.00;99.90;;;;;;4899300;29;20214;-69
2023/01/06 13:36:19;;;;;;;0.80;0.60;;;12.00;99.90;;;;;;4898408;29;20234;-72
2023/01/06 13:38:58;;;;;;;0.60;0.60;;;12.10;99.90;;;;;;4899772;29;20206;-72
2023/01/06 13:41:27;;;;;;;0.77;0.40;;;12.10;99.90;;;;;;4899479;29;20234;-71
2023/01/06 13:43:57;;;;;;;0.77;0.40;;;12.10;99.90;;;;;;4899442;29;20225;-72
2023/01/06 13:46:26;;;;;;;0.93;0.53;;;12.20;99.90;;;;;;4899203;29;20230;-70
2023/01/06 13:48:57;;;;;;;2.33;0.63;;;12.20;99.90;;;;;;4899120;29;20222;-71
2023/01/06 13:51:29;;;;;;;0.60;0.53;;;12.30;99.90;;;;;;4899412;29;20219;-72
2023/01/06 13:53:56;;;;;;;0.50;0.40;;;12.20;99.90;;;;;;4899465;29;20569;-70
2023/01/06 13:56:24;;;;;;;0.87;0.60;;;12.30;99.90;;;;;;4899259;29;20231;-69
2023/01/06 13:59:12;;;;;;;1.40;0.47;;;12.40;99.90;;;;;;4898965;29;20673;-69
2023/01/06 14:01:40;;;;;;;0.73;0.50;;;12.40;99.90;;;;;;4898847;29;20230;-70
2023/01/06 14:04:45;;;;;;;0.60;0.43;;;12.40;99.90;;;;;;4899345;29;20225;-70
2023/01/06 14:07:13;;;;;;;0.97;0.47;;;12.30;99.90;;;;;;4899145;29;20214;-69
2023/01/06 14:09:48;;;;;;;1.87;0.60;;;12.20;99.90;;;;;;4898764;29;20210;-70
2023/01/06 14:12:20;;;;;;;0.50;0.40;;;12.10;99.90;;;;;;4899063;29;20214;-70
2023/01/06 14:14:58;;;;;;;1.00;0.50;;;12.20;99.90;;;;;;4898608;29;20273;-70
2023/01/06 14:17:39;;;;;;;1.63;0.70;;;12.10;99.90;;;;;;4898791;29;20214;-71
2023/01/06 14:20:21;;;;;;;0.80;0.47;;;12.20;99.90;;;;;;4898485;29;20218;-70
2023/01/06 14:22:59;;;;;;;0.60;0.43;;;12.20;99.90;;;;;;4898464;29;20717;-71
2023/01/06 14:25:28;;;;;;;3.53;1.00;;;12.30;99.90;;;;;;4898578;29;20226;-71
2023/01/06 14:28:27;;;;;;;0.50;0.40;;;12.30;99.90;;;;;;4898440;29;20206;-71
2023/01/06 14:31:27;;;;;;;2.10;0.50;;;12.30;99.90;;;;;;4893691;29;20210;-72
2023/01/06 14:33:57;;;;;;;0.73;0.50;;;12.20;99.90;;;;;;4898474;29;20230;-71
2023/01/06 14:36:26;;;;;;;0.70;0.53;;;12.20;99.90;;;;;;4898341;29;20226;-71
2023/01/06 14:38:57;;;;;;;0.80;0.37;;;12.20;99.90;;;;;;4898396;29;20206;-70
2023/01/06 14:41:28;;;;;;;2.67;0.63;;;12.10;99.90;;;;;;4898161;29;20662;-71
2023/01/06 14:44:00;;;;;;;0.90;0.50;;;12.10;99.90;;;;;;4898414;29;20216;-71
2023/01/06 14:46:30;;;;;;;0.73;0.50;;;12.10;99.90;;;;;;4897827;29;20234;-73
2023/01/06 14:49:01;;;;;;;0.70;0.53;;;12.00;99.90;;;;;;4898202;29;20210;-72
2023/01/06 14:51:30;;;;;;;0.70;0.70;;;12.00;99.90;;;;;;4898137;29;20258;-71
2023/01/06 14:54:04;;;;;;;1.20;0.87;;;12.00;99.90;;;;;;4898649;29;20297;-70
2023/01/06 14:56:33;;;;;;;3.13;1.20;;;12.10;99.90;;;;;;4898069;29;20230;-70
2023/01/06 14:59:04;;;;;;;2.07;1.13;;;12.00;99.90;;;;;;4898384;29;20211;-70
2023/01/06 15:01:34;;;;;;;0.60;0.60;;;12.00;99.90;;;;;;4897985;29;20238;-69
2023/01/06 15:04:04;;;;;;;1.00;0.70;;;12.00;99.90;;;;;;4897961;29;20248;-70
2023/01/06 15:06:31;;;;;;;0.73;0.50;;;12.00;99.90;;;;;;4897723;29;20237;-70
2023/01/06 15:09:12;;;;;;;0.70;0.50;;;12.00;99.90;;;;;;4898035;29;20217;-71
2023/01/06 15:11:41;;;;;;;1.13;0.60;;;11.90;99.90;;;;;;4898207;29;20210;-71
2023/01/06 15:14:31;;;;;;;0.90;0.60;;;11.80;99.90;;;;;;4898161;29;20653;-71
2023/01/06 15:17:01;;;;;;;1.13;0.77;;;11.80;99.90;;;;;;4898444;29;20318;-71
2023/01/06 15:19:30;;;;;;;0.90;0.63;;;11.80;99.90;;;;;;4897742;29;20250;-70
2023/01/06 15:21:59;;;;;;;0.80;0.50;;;11.90;99.90;;;;;;4897863;29;20233;-71
2023/01/06 15:24:29;;;;;;;1.20;1.00;;;11.90;99.90;;;;;;4897849;29;20212;-71
2023/01/06 15:27:04;;;;;;;2.23;0.60;;;12.00;99.90;;;;;;4897669;29;20234;-70
2023/01/06 15:29:31;;;;;;;0.87;0.67;;;11.90;99.90;;;;;;4897777;29;20219;-70
2023/01/06 15:31:58;;;;;;;1.43;0.70;;;11.90;99.90;;;;;;4897990;29;20224;-71
2023/01/06 15:34:32;;;;;;;0.93;0.60;;;11.80;99.90;;;;;;4897719;29;20221;-69
2023/01/06 15:37:01;;;;;;;1.70;0.97;;;11.80;99.90;;;;;;4897717;29;20233;-71
2023/01/06 15:39:30;;;;;;;0.70;0.60;;;11.80;99.90;;;;;;4897360;29;20700;-71
2023/01/06 15:41:59;;;;;;;1.50;1.03;;;11.80;99.90;;;;;;4897720;29;20242;-71
2023/01/06 15:44:28;;;;;;;1.57;1.00;;;11.80;99.90;;;;;;4897500;29;20210;-70
2023/01/06 15:47:03;;;;;;;2.30;1.10;;;11.80;99.90;;;;;;4897603;29;20642;-71
2023/01/06 15:49:34;;;;;;;1.17;0.73;;;11.80;99.90;;;;;;4897554;29;20214;-71
2023/01/06 15:52:04;;;;;;;1.70;1.20;;;11.80;99.90;;;;;;4897618;29;20718;-70
2023/01/06 15:54:34;;;;;;;1.03;0.80;;;11.70;99.90;;;;;;4897467;29;20221;-71
2023/01/06 15:57:03;;;;;;;2.10;0.80;;;11.70;99.90;;;;;;4897614;29;20241;-70
2023/01/06 15:59:30;;;;;;;1.20;0.87;;;11.70;99.90;;;;;;4900696;29;20221;-71
2023/01/06 16:01:57;;;;;;;1.37;0.90;;;11.70;99.90;;;;;;4901004;29;20234;-70
2023/01/06 16:04:24;;;;;;;1.67;0.90;;;11.70;99.90;;;;;;4900641;29;20211;-71
2023/01/06 16:06:52;;;;;;;1.10;0.63;;;11.70;99.90;;;;;;4900916;29;20262;-71
2023/01/06 16:09:29;;;;;;;2.40;0.80;;;11.70;99.90;;;;;;4901060;29;20569;-71
2023/01/06 16:11:59;;;;;;;1.80;0.73;;;11.70;99.90;;;;;;4901004;29;20217;-71
2023/01/06 16:14:29;;;;;;;1.07;0.60;;;11.70;99.90;;;;;;4900879;29;20214;-71
2023/01/06 16:17:07;;;;;;;0.67;0.50;;;11.70;99.90;;;;;;4900831;29;20317;-71
2023/01/06 16:19:36;;;;;;;1.07;0.70;;;11.70;99.90;;;;;;4900373;29;20228;-72
2023/01/06 16:22:14;;;;;;;0.83;0.60;;;11.60;99.90;;;;;;4900588;29;20245;-70
2023/01/06 16:24:41;;;;;;;0.70;0.70;;;11.60;99.90;;;;;;4900689;29;20216;-71
2023/01/06 16:27:08;;;;;;;2.97;0.63;;;11.50;99.90;;;;;;4900729;29;20230;-71
2023/01/06 16:29:37;;;;;;;1.80;0.90;;;11.50;99.90;;;;;;4900492;29;20213;-72
2023/01/06 16:32:26;;;;;;;1.83;0.70;;;11.60;99.90;;;;;;4900515;29;20669;-73
2023/01/06 16:34:55;;;;;;;0.80;0.57;;;11.60;99.90;;;;;;4900180;29;20222;-72
2023/01/06 16:37:23;;;;;;;0.60;0.60;;;11.60;99.90;;;;;;4900122;29;20214;-73
2023/01/06 16:39:57;;;;;;;1.00;0.70;;;11.60;99.90;;;;;;4900293;29;20213;-74
2023/01/06 16:42:39;;;;;;;1.47;0.97;;;11.60;99.90;;;;;;4900491;29;20260;-74
2023/01/06 16:45:11;;;;;;;1.40;0.80;;;11.60;99.90;;;;;;4900225;29;20230;-73
2023/01/06 16:47:38;;;;;;;1.03;0.70;;;11.60;99.90;;;;;;4900290;29;20214;-74
2023/01/06 16:50:16;;;;;;;1.10;0.80;;;11.50;99.90;;;;;;4899875;29;20569;-72
2023/01/06 16:52:46;;;;;;;1.17;0.80;;;11.50;99.90;;;;;;4900375;29;20220;-74
2023/01/06 16:55:15;;;;;;;0.80;0.67;;;11.50;99.90;;;;;;4900163;29;20226;-73
2023/01/06 16:57:45;;;;;;;1.87;0.80;;;11.50;99.90;;;;;;4899738;29;20215;-73
2023/01/06 17:00:15;;;;;;;1.53;0.70;;;11.50;99.90;;;;;;4899469;29;20217;-72
2023/01/06 17:02:43;;;;;;;1.37;0.83;;;11.50;99.90;;;;;;4899872;29;20242;-72
2023/01/06 17:05:18;;;;;;;1.93;0.97;;;11.50;99.90;;;;;;4899936;29;20232;-72
2023/01/06 17:07:46;;;;;;;1.73;0.90;;;11.50;99.90;;;;;;4899975;29;20206;-74
2023/01/06 17:10:16;;;;;;;3.93;1.00;;;11.40;99.90;;;;;;4899673;29;20210;-73
2023/01/06 17:15:27;;;;;;;2.47;1.13;;;11.30;99.90;;;;;;4899901;29;20313;-73
2023/01/06 17:17:54;;;;;;;1.67;1.23;;;11.40;99.90;;;;;;4900003;29;20210;-73
2023/01/06 17:20:21;;;;;;;1.13;0.97;;;11.40;99.90;;;;;;4899524;29;20221;-72
2023/01/06 17:22:50;;;;;;;2.33;1.20;;;11.40;99.90;;;;;;4899496;29;20245;-72
2023/01/06 17:25:17;;;;;;;1.43;1.03;;;11.40;99.90;;;;;;4899549;29;20230;-73
2023/01/06 17:27:47;;;;;;;2.13;1.17;;;11.40;99.90;;;;;;4899277;29;20214;-73
2023/01/06 17:30:18;;;;;;;2.30;1.37;;;11.30;99.90;;;;;;4899821;29;20213;-73
2023/01/06 17:32:46;;;;;;;1.90;1.30;;;11.40;99.90;;;;;;4899862;29;20226;-72
2023/01/06 17:35:21;;;;;;;3.83;1.50;;;11.40;99.90;;;;;;4899516;29;20226;-73
2023/01/06 17:37:49;;;;;;;1.77;1.20;;;11.40;99.90;;;;;;4899263;29;20218;-72
2023/01/06 17:40:18;;;;;;;2.23;1.20;;;11.30;99.90;;;;;;4894601;29;20214;-74
2023/01/06 17:42:49;;;;;;;1.97;1.07;;;11.30;99.90;;;;;;4899379;29;20230;-72
2023/01/06 17:45:23;;;;;;;2.30;1.30;;;11.30;99.90;;;;;;4899473;29;20253;-73
2023/01/06 17:47:51;;;;;;;2.20;1.57;;;11.30;99.90;;;;;;4899047;29;20210;-75
2023/01/06 17:50:27;;;;;;;1.70;1.33;;;11.30;99.90;;;;;;4898591;29;20210;-70
2023/01/06 17:55:55;;;;;;;1.70;1.30;;;11.30;99.90;;;;;;4899229;29;20733;-79
2023/01/06 17:58:28;;;;;;;3.67;2.03;;;11.30;99.90;;;;;;4899283;29;20206;-72
2023/01/06 18:00:54;;;;;;;4.40;2.30;;;11.30;99.90;;;;;;4899194;29;20218;-75
2023/01/06 18:03:24;;;;;;;2.60;1.60;;;11.20;99.90;;;;;;4898985;29;20239;-74
2023/01/06 18:06:02;;;;;;;3.07;1.80;;;11.20;99.90;;;;;;4898670;29;20697;-75
2023/01/06 18:08:31;;;;;;;2.53;1.73;;;11.20;99.90;;;;;;4898701;29;20336;-74
2023/01/06 18:11:14;;;;;;;3.17;2.10;;;11.20;99.90;;;;;;4898550;29;20215;-75
2023/01/06 18:13:42;;;;;;;3.27;1.97;;;11.20;99.90;;;;;;4898532;29;20562;-74
2023/01/06 18:16:19;;;;;;;2.83;1.90;;;11.20;99.90;;;;;;4898404;29;20235;-73
2023/01/06 18:18:46;;;;;;;3.87;2.00;;;11.20;99.90;;;;;;4898479;29;20218;-76
2023/01/06 18:21:27;;;;;;;4.10;2.00;;;11.20;99.90;;;;;;4898226;29;20305;-78
2023/01/06 18:23:55;;;;;;;3.30;1.93;;;11.20;99.90;;;;;;4898973;29;20242;-73
2023/01/06 18:26:35;;;;;;;3.17;1.73;;;11.30;99.90;;;;;;4898386;29;20230;-78
2023/01/06 18:29:11;;;;;;;2.33;1.70;;;11.20;99.90;;;;;;4894484;29;20232;-72
2023/01/06 18:31:39;;;;;;;6.60;1.47;;;11.20;99.90;;;;;;4897456;29;20206;-70
2023/01/06 18:34:30;;;;;;;3.37;1.70;;;11.10;99.90;;;;;;4897036;29;20218;-70
2023/01/06 18:36:59;;;;;;;2.07;1.57;;;11.10;99.90;;;;;;4895960;29;20234;-70
2023/01/06 18:39:37;;;;;;;1.77;1.20;;;11.10;99.90;;;;;;4896498;29;20202;-70
2023/01/06 18:42:21;;;;;;;2.17;1.20;;;11.10;99.90;;;;;;4896830;29;20329;-69
2023/01/06 18:44:49;;;;;;;2.07;1.47;;;11.10;99.90;;;;;;4896938;29;20677;-70
2023/01/06 18:47:18;;;;;;;2.50;1.47;;;11.10;99.90;;;;;;4897166;29;20697;-70
2023/01/06 18:49:45;;;;;;;1.90;1.40;;;11.10;99.90;;;;;;4896847;29;20222;-70
2023/01/06 18:52:44;;;;;;;3.10;1.70;;;11.00;99.90;;;;;;4896671;29;20305;-69
2023/01/06 18:55:19;;;;;;;3.10;1.80;;;11.00;99.90;;;;;;4838802;29;20380;-70
2023/01/06 18:57:56;;;;;;;2.20;1.40;;;11.00;99.90;;;;;;4886970;29;20214;-70
2023/01/06 19:00:39;;;;;;;1.50;1.20;;;11.10;99.90;;;;;;4895997;29;20662;-69
2023/01/06 19:03:29;;;;;;;2.50;1.50;;;11.00;99.90;;;;;;4896773;29;20256;-70
2023/01/06 19:06:06;;;;;;;1.90;1.27;;;11.10;99.90;;;;;;4877113;29;20234;-68
2023/01/06 19:08:34;;;;;;;2.00;1.33;;;11.00;99.90;;;;;;4879142;29;20211;-68
2023/01/06 19:11:11;;;;;;;1.60;1.17;;;11.00;99.90;;;;;;4894686;29;20217;-71
2023/01/06 19:13:38;;;;;;;3.40;1.47;;;11.10;99.90;;;;;;4895327;29;20209;-69
2023/01/06 19:16:27;;;;;;;1.23;1.13;;;11.00;99.90;;;;;;4895542;29;20240;-70
2023/01/06 19:18:57;;;;;;;1.97;1.40;;;11.10;99.90;;;;;;4896028;29;20225;-69
2023/01/06 19:21:24;;;;;;;2.53;1.63;;;11.10;99.90;;;;;;4896134;29;20643;-71
2023/01/06 19:23:51;;;;;;;3.57;1.60;;;11.00;99.90;;;;;;4896696;29;20238;-69
2023/01/06 19:26:28;;;;;;;2.83;1.33;;;11.10;99.90;;;;;;4896202;29;20325;-70
2023/01/06 19:29:03;;;;;;;1.70;1.20;;;11.10;99.90;;;;;;4895643;29;20573;-69
2023/01/06 19:31:30;;;;;;;2.20;1.20;;;11.10;99.90;;;;;;4896373;29;20214;-69
2023/01/06 19:33:59;;;;;;;1.60;1.17;;;11.20;99.90;;;;;;4900381;29;20209;-69
2023/01/06 19:36:39;;;;;;;3.40;1.40;;;11.20;99.90;;;;;;4899849;29;20705;-70
2023/01/06 19:39:24;;;;;;;3.30;1.57;;;11.20;99.90;;;;;;4900330;29;20653;-69
2023/01/06 19:41:54;;;;;;;2.10;1.27;;;11.20;99.90;;;;;;4900696;29;20297;-69
2023/01/06 19:44:32;;;;;;;2.80;1.53;;;11.20;99.90;;;;;;4899564;29;20238;-70
2023/01/06 19:47:01;;;;;;;2.27;1.47;;;11.30;99.90;;;;;;4899985;29;20721;-71
2023/01/06 19:49:38;;;;;;;2.73;1.63;;;11.20;99.90;;;;;;4899805;29;20654;-69
2023/01/06 19:52:27;;;;;;;2.60;1.67;;;11.20;99.90;;;;;;4899740;29;20210;-70
2023/01/06 19:54:55;;;;;;;1.77;1.27;;;11.20;99.90;;;;;;4897245;29;20214;-69
2023/01/06 19:57:27;;;;;;;3.93;1.57;;;11.20;99.90;;;;;;4899408;29;20214;-68
2023/01/06 19:59:56;;;;;;;2.93;1.50;;;11.20;99.90;;;;;;4900979;29;20210;-68
2023/01/06 20:02:28;;;;;;;2.43;1.50;;;11.20;99.90;;;;;;4900700;29;20313;-68
2023/01/06 20:04:55;;;;;;;3.67;1.43;;;11.20;99.90;;;;;;4900774;29;20282;-68
2023/01/06 20:07:22;;;;;;;4.60;1.63;;;11.10;99.90;;;;;;4901069;29;20210;-69
2023/01/06 20:09:48;;;;;;;1.93;1.30;;;11.10;99.90;;;;;;4901111;29;20221;-69
2023/01/06 20:12:15;;;;;;;3.17;1.70;;;11.10;99.90;;;;;;4900788;29;20211;-69
2023/01/06 20:14:43;;;;;;;3.00;1.90;;;11.10;99.90;;;;;;4901150;29;20221;-69
2023/01/06 20:17:11;;;;;;;3.93;1.70;;;11.10;99.90;;;;;;4900525;29;20743;-69
2023/01/06 20:19:38;;;;;;;2.30;1.53;;;11.10;99.90;;;;;;4900839;29;20222;-69
2023/01/06 20:22:04;;;;;;;2.97;1.60;;;11.10;99.90;;;;;;4900849;29;20213;-68
2023/01/06 20:24:31;;;;;;;1.87;1.57;;;11.10;99.90;;;;;;4900473;29;20238;-68
2023/01/06 20:26:58;;;;;;;2.57;1.50;;;11.10;99.90;;;;;;4900627;29;20326;-69
2023/01/06 20:29:25;;;;;;;2.90;1.77;;;11.10;99.90;;;;;;4900795;29;20210;-69
2023/01/06 20:31:53;;;;;;;3.60;1.60;;;11.10;99.90;;;;;;4900693;29;20207;-69
2023/01/06 20:34:20;;;;;;;6.20;1.80;;;11.10;99.90;;;;;;4900897;29;20233;-69
2023/01/06 20:36:46;;;;;;;2.23;1.67;;;11.10;99.90;;;;;;4900238;29;20237;-68
2023/01/06 20:39:14;;;;;;;2.20;1.40;;;11.00;99.90;;;;;;4900317;29;20217;-69
2023/01/06 20:41:40;;;;;;;4.03;1.50;;;11.00;99.90;;;;;;4900528;29;20607;-70
2023/01/06 20:44:07;;;;;;;4.00;2.23;;;11.00;99.90;;;;;;4900036;29;20242;-69
2023/01/06 20:46:34;;;;;;;5.67;1.63;;;11.00;99.90;;;;;;4900436;29;20230;-69
2023/01/06 20:49:02;;;;;;;2.30;1.57;;;11.00;99.90;;;;;;4900195;29;20217;-70
2023/01/06 20:51:29;;;;;;;3.37;1.70;;;11.10;99.90;;;;;;4900405;29;20216;-70
2023/01/06 20:53:56;;;;;;;4.10;2.07;;;11.00;99.90;;;;;;4900343;29;20225;-69
2023/01/06 20:56:23;;;;;;;3.03;1.60;;;11.00;99.90;;;;;;4899970;29;20230;-70
2023/01/06 20:58:50;;;;;;;2.20;1.50;;;11.00;99.90;;;;;;4900145;29;20215;-70
2023/01/06 21:01:16;;;;;;;4.23;1.80;;;11.00;99.90;;;;;;4900319;29;20243;-69
2023/01/06 21:03:43;;;;;;;2.43;1.57;;;11.00;99.90;;;;;;4900110;29;20321;-69
2023/01/06 21:06:11;;;;;;;4.63;2.00;;;11.00;99.90;;;;;;4899991;29;20227;-70
2023/01/06 21:08:38;;;;;;;2.83;1.50;;;11.00;99.90;;;;;;4900232;29;20210;-69
2023/01/06 21:11:05;;;;;;;2.87;1.67;;;11.00;99.90;;;;;;4900377;29;20228;-69
2023/01/06 21:13:32;;;;;;;2.70;1.60;;;11.00;99.90;;;;;;4899743;29;20210;-69
2023/01/06 21:15:59;;;;;;;3.23;1.40;;;11.00;99.90;;;;;;4899598;29;20236;-70
2023/01/06 21:18:26;;;;;;;2.07;1.60;;;11.00;99.90;;;;;;4900094;29;20228;-69
2023/01/06 21:20:52;;;;;;;3.73;1.67;;;11.00;99.90;;;;;;4899565;29;20210;-68
2023/01/06 21:23:21;;;;;;;2.50;1.60;;;11.00;99.90;;;;;;4899727;29;20217;-69
2023/01/06 21:25:47;;;;;;;2.30;1.70;;;11.00;99.90;;;;;;4899397;29;20597;-69
2023/01/06 21:28:14;;;;;;;3.77;1.60;;;11.00;99.90;;;;;;4900004;29;20210;-68
2023/01/06 21:30:41;;;;;;;3.90;2.10;;;11.00;99.90;;;;;;4899874;29;20210;-68
2023/01/06 21:33:08;;;;;;;1.90;1.50;;;11.10;99.90;;;;;;4899720;29;20217;-68
2023/01/06 21:35:35;;;;;;;4.37;1.90;;;11.10;99.90;;;;;;4899269;29;20325;-68
2023/01/06 21:38:04;;;;;;;3.73;1.70;;;11.10;99.90;;;;;;4899872;29;20605;-67
2023/01/06 21:40:32;;;;;;;3.03;2.10;;;11.10;99.90;;;;;;4899816;29;20210;-68
2023/01/06 21:43:10;;;;;;;3.03;1.53;;;11.10;99.90;;;;;;4899308;29;20215;-69
2023/01/06 21:45:37;;;;;;;2.00;1.50;;;11.10;99.90;;;;;;4899210;29;20661;-68
2023/01/06 21:48:05;;;;;;;2.17;1.60;;;11.00;99.90;;;;;;4899317;29;20214;-68
2023/01/06 21:50:35;;;;;;;2.50;1.50;;;11.00;99.90;;;;;;4899582;29;20236;-69
2023/01/06 21:53:02;;;;;;;5.80;2.23;;;11.10;99.90;;;;;;4899320;29;20216;-68
2023/01/06 21:55:29;;;;;;;5.07;2.00;;;11.00;99.90;;;;;;4898112;29;20789;-69
2023/01/06 21:57:57;;;;;;;1.63;1.33;;;11.00;99.90;;;;;;4899066;29;20266;-68
2023/01/06 22:00:24;;;;;;;2.20;1.60;;;11.10;99.90;;;;;;4899149;29;20210;-68
2023/01/06 22:02:53;;;;;;;2.17;1.40;;;11.00;99.90;;;;;;4899043;29;20214;-68
2023/01/06 22:05:19;;;;;;;3.30;1.50;;;11.00;99.90;;;;;;4899000;29;20242;-68
2023/01/06 22:07:50;;;;;;;3.57;1.40;;;11.00;99.90;;;;;;4898896;29;20210;-68
2023/01/06 22:10:19;;;;;;;1.50;1.17;;;11.00;99.90;;;;;;4898446;29;20688;-68
2023/01/06 22:12:47;;;;;;;2.27;1.40;;;11.00;99.90;;;;;;4898689;29;20213;-69
2023/01/06 22:15:16;;;;;;;2.33;1.50;;;11.00;99.90;;;;;;4898467;29;20542;-69
2023/01/06 22:17:43;;;;;;;4.00;1.63;;;11.00;99.90;;;;;;4898871;29;20237;-68
2023/01/06 22:20:12;;;;;;;2.73;1.53;;;11.00;99.90;;;;;;4898928;29;20206;-68
2023/01/06 22:22:39;;;;;;;3.57;1.77;;;11.00;99.90;;;;;;4898638;29;20233;-68
2023/01/06 22:25:07;;;;;;;3.93;1.60;;;11.00;99.90;;;;;;4898221;29;20253;-68
2023/01/06 22:27:34;;;;;;;3.60;1.60;;;11.00;99.90;;;;;;4898274;29;20683;-68
2023/01/06 22:30:01;;;;;;;2.73;1.53;;;11.00;99.90;;;;;;4897958;29;20254;-68
2023/01/06 22:32:30;;;;;;;2.07;1.57;;;10.90;99.90;;;;;;4898472;29;20211;-67
2023/01/06 22:34:57;;;;;;;6.90;1.23;;;11.00;99.90;;;;;;4897880;29;20210;-68
2023/01/06 22:37:24;;;;;;;3.37;1.40;;;10.90;99.90;;;;;;4898511;29;20573;-68